Private Wetterstation Wechselburg
Wetterdaten: Woche 25.09.23 - 01.10.23 (KW39)
Datum Zeit Temp. +2m Bodentemp. Temp.+5cm Temp. Wind Windchill X Diff Temp. Feuchte +2m Feuchte +5cm Luftdruck Regen Wind Richtung Sonnenschein Taupunkt Windchill Windben
25.09.2023 00:00 7,6 C 15,7 C 7,0 C 7,2 C 6,3 C 0,0 C 86 % 77 % 1027,5 hPa 0,0 l/m 0,0 km/h (0 Bft) N 0,00 h 5,4 C 6,3 C 0,0 km/h (0 Bft)
25.09.2023 01:00 6,8 C 15,5 C 6,4 C 6,5 C 5,8 C 0,0 C 87 % 78 % 1027,2 hPa 0,0 l/m 0,0 km/h (0 Bft) N 0,00 h 4,8 C 5,8 C 0,0 km/h (0 Bft)
25.09.2023 02:00 6,3 C 15,3 C 6,1 C 6,0 C 5,4 C 0,0 C 87 % 78 % 1027,2 hPa 0,0 l/m 0,0 km/h (0 Bft) N 0,00 h 4,3 C 5,4 C 0,0 km/h (0 Bft)
25.09.2023 03:00 6,0 C 15,1 C 5,7 C 5,7 C 5,2 C 0,0 C 88 % 79 % 1027,0 hPa 0,0 l/m 0,0 km/h (0 Bft) N 0,00 h 4,0 C 5,2 C 0,0 km/h (0 Bft)
25.09.2023 04:00 5,6 C 15,0 C 5,5 C 5,4 C 5,1 C 0,0 C 88 % 79 % 1027,1 hPa 0,0 l/m 0,0 km/h (0 Bft) N 0,00 h 3,8 C 5,1 C 0,0 km/h (0 Bft)
25.09.2023 05:00 5,1 C 14,7 C 5,0 C 4,9 C 4,4 C 0,0 C 88 % 78 % 1026,9 hPa 0,0 l/m 0,0 km/h (0 Bft) N 0,00 h 3,3 C 4,4 C 0,0 km/h (0 Bft)
25.09.2023 06:00 5,0 C 14,5 C 5,0 C 6,7 C 6,6 C 1,8 C 89 % 79 % 1027,1 hPa 0,0 l/m 0,0 km/h (0 Bft) N 0,00 h 3,3 C 6,6 C 0,0 km/h (0 Bft)
25.09.2023 07:00 6,3 C 14,4 C 5,9 C 7,9 C 7,9 C 1,6 C 88 % 80 % 1027,3 hPa 0,0 l/m 0,0 km/h (0 Bft) N 0,83 h 4,5 C 7,9 C 0,0 km/h (0 Bft)
25.09.2023 08:00 7,2 C 14,1 C 8,1 C 10,3 C 10,3 C 3,0 C 88 % 86 % 1026,8 hPa 0,0 l/m 0,0 km/h (0 Bft) N 1,00 h 5,4 C 10,3 C 0,0 km/h (0 Bft)
25.09.2023 09:00 10,2 C 14,0 C 11,4 C 13,7 C 13,7 C 3,5 C 89 % 89 % 1026,0 hPa 0,0 l/m 0,0 km/h (0 Bft) N 0,92 h 8,4 C 13,7 C 0,0 km/h (0 Bft)
25.09.2023 10:00 15,6 C 14,1 C 15,5 C 16,7 C 16,6 C 1,1 C 80 % 68 % 1025,4 hPa 0,0 l/m 0,3 km/h (0 Bft) N 0,08 h 12,1 C 16,6 C 0,6 km/h (0 Bft)
25.09.2023 11:00 18,8 C 14,1 C 17,9 C 18,2 C 17,0 C 0,0 C 66 % 59 % 1025,1 hPa 0,0 l/m 0,0 km/h (0 Bft) N 0,00 h 12,3 C 17,0 C 0,0 km/h (0 Bft)
25.09.2023 12:00 22,1 C 14,3 C 20,4 C 20,4 C 17,0 C 0,0 C 57 % 53 % 1024,9 hPa 0,0 l/m 0,0 km/h (0 Bft) N 0,00 h 13,1 C 17,0 C 0,0 km/h (0 Bft)
25.09.2023 13:00 22,4 C 14,6 C 21,4 C 22,3 C 19,7 C 1,2 C 54 % 50 % 1024,7 hPa 0,0 l/m 0,1 km/h (0 Bft) N 0,23 h 12,6 C 19,7 C 0,2 km/h (0 Bft)
25.09.2023 14:00 21,2 C 14,9 C 20,9 C 24,7 C 24,7 C 3,5 C 56 % 50 % 1024,1 hPa 0,0 l/m 0,6 km/h (0 Bft) O-NO 0,83 h 12,1 C 24,7 C 0,9 km/h (0 Bft)
25.09.2023 15:00 21,3 C 15,2 C 20,8 C 22,0 C 22,0 C 0,7 C 56 % 50 % 1023,9 hPa 0,0 l/m 0,2 km/h (0 Bft) N 0,00 h 12,2 C 22,0 C 0,7 km/h (0 Bft)
25.09.2023 16:00 21,2 C 15,4 C 20,2 C 21,4 C 21,4 C 0,2 C 56 % 51 % 1023,6 hPa 0,0 l/m 0,1 km/h (0 Bft) N 0,00 h 12,2 C 21,4 C 0,2 km/h (0 Bft)
25.09.2023 17:00 20,3 C 15,6 C 18,8 C 20,1 C 19,7 C 0,0 C 60 % 55 % 1023,3 hPa 0,0 l/m 0,0 km/h (0 Bft) N 0,00 h 12,2 C 19,7 C 0,0 km/h (0 Bft)
25.09.2023 18:00 17,6 C 15,8 C 15,6 C 17,1 C 16,0 C 0,0 C 66 % 63 % 1023,4 hPa 0,0 l/m 0,0 km/h (0 Bft) N 0,00 h 11,2 C 16,0 C 0,0 km/h (0 Bft)
25.09.2023 19:00 15,7 C 15,9 C 14,1 C 15,1 C 14,0 C 0,0 C 72 % 68 % 1023,8 hPa 0,0 l/m 0,0 km/h (0 Bft) N 0,00 h 10,7 C 14,0 C 0,0 km/h (0 Bft)
25.09.2023 20:00 14,7 C 16,0 C 13,4 C 14,2 C 13,1 C 0,0 C 75 % 71 % 1023,8 hPa 0,0 l/m 0,0 km/h (0 Bft) N 0,00 h 10,4 C 13,1 C 0,0 km/h (0 Bft)
25.09.2023 21:00 13,1 C 16,0 C 12,2 C 12,7 C 11,7 C 0,0 C 79 % 74 % 1023,9 hPa 0,0 l/m 0,0 km/h (0 Bft) N 0,00 h 9,6 C 11,7 C 0,0 km/h (0 Bft)
25.09.2023 22:00 12,1 C 16,0 C 11,4 C 11,7 C 10,8 C 0,0 C 82 % 76 % 1023,7 hPa 0,0 l/m 0,0 km/h (0 Bft) N 0,00 h 9,1 C 10,8 C 0,0 km/h (0 Bft)
25.09.2023 23:00 11,1 C 16,0 C 10,6 C 10,8 C 10,1 C 0,0 C 84 % 78 % 1023,8 hPa 0,0 l/m 0,0 km/h (0 Bft) N 0,00 h 8,5 C 10,1 C 0,0 km/h (0 Bft)
26.09.2023 00:00 10,7 C 15,9 C 10,4 C 10,5 C 9,9 C 0,0 C 86 % 79 % 1023,6 hPa 0,0 l/m 0,0 km/h (0 Bft) N 0,00 h 8,4 C 9,9 C 0,0 km/h (0 Bft)
26.09.2023 01:00 10,3 C 15,8 C 9,9 C 10,0 C 9,5 C 0,0 C 86 % 79 % 1023,6 hPa 0,0 l/m 0,0 km/h (0 Bft) N 0,00 h 8,0 C 9,5 C 0,0 km/h (0 Bft)
26.09.2023 02:00 9,8 C 15,7 C 9,5 C 9,5 C 9,0 C 0,0 C 87 % 80 % 1023,2 hPa 0,0 l/m 0,0 km/h (0 Bft) N 0,00 h 7,7 C 9,0 C 0,0 km/h (0 Bft)
26.09.2023 03:00 9,2 C 15,6 C 8,9 C 9,0 C 8,5 C 0,0 C 87 % 80 % 1023,2 hPa 0,0 l/m 0,0 km/h (0 Bft) N 0,00 h 7,2 C 8,5 C 0,0 km/h (0 Bft)
26.09.2023 04:00 8,6 C 15,5 C 8,3 C 8,4 C 7,9 C 0,0 C 88 % 80 % 1023,4 hPa 0,0 l/m 0,0 km/h (0 Bft) N 0,00 h 6,6 C 7,9 C 0,0 km/h (0 Bft)
26.09.2023 05:00 8,0 C 15,4 C 7,9 C 7,8 C 7,4 C 0,0 C 88 % 79 % 1023,2 hPa 0,0 l/m 0,0 km/h (0 Bft) N 0,00 h 6,2 C 7,4 C 0,0 km/h (0 Bft)
26.09.2023 06:00 7,6 C 15,2 C 7,4 C 7,4 C 7,1 C 0,0 C 88 % 80 % 1022,9 hPa 0,0 l/m 0,0 km/h (0 Bft) N 0,00 h 5,7 C 7,1 C 0,0 km/h (0 Bft)
26.09.2023 07:00 7,2 C 15,1 C 7,3 C 7,8 C 7,7 C 0,6 C 88 % 80 % 1023,9 hPa 0,0 l/m 0,0 km/h (0 Bft) N 0,12 h 5,4 C 7,7 C 0,0 km/h (0 Bft)
26.09.2023 08:00 7,9 C 15,0 C 8,3 C 10,1 C 10,1 C 2,3 C 88 % 80 % 1023,4 hPa 0,0 l/m 0,0 km/h (0 Bft) N 0,27 h 6,0 C 10,1 C 0,0 km/h (0 Bft)
26.09.2023 09:00 9,1 C 14,9 C 10,3 C 12,0 C 12,0 C 3,0 C 88 % 86 % 1023,2 hPa 0,0 l/m 0,0 km/h (0 Bft) N 0,08 h 7,2 C 12,0 C 0,0 km/h (0 Bft)
26.09.2023 10:00 12,2 C 14,7 C 13,9 C 16,7 C 16,7 C 4,5 C 89 % 89 % 1022,7 hPa 0,0 l/m 0,1 km/h (0 Bft) N-NO 1,00 h 10,3 C 16,7 C 0,0 km/h (0 Bft)
26.09.2023 11:00 18,9 C 14,8 C 18,8 C 20,8 C 20,8 C 1,9 C 81 % 74 % 1022,1 hPa 0,0 l/m 1,3 km/h (1 Bft) O-NO 0,08 h 15,6 C 20,8 C 1,8 km/h (1 Bft)
26.09.2023 12:00 21,4 C 14,8 C 20,5 C 24,0 C 24,0 C 2,6 C 71 % 67 % 1021,2 hPa 0,0 l/m 0,4 km/h (0 Bft) N 0,42 h 16,0 C 24,0 C 0,9 km/h (0 Bft)
26.09.2023 13:00 24,2 C 15,1 C 21,3 C 30,7 C 30,7 C 6,5 C 64 % 66 % 1020,4 hPa 0,0 l/m 0,1 km/h (0 Bft) N 1,00 h 17,1 C 30,7 C 0,0 km/h (0 Bft)
26.09.2023 14:00 25,7 C 15,4 C 22,6 C 32,4 C 32,4 C 6,7 C 59 % 63 % 1019,9 hPa 0,0 l/m 0,1 km/h (0 Bft) N 1,00 h 17,0 C 32,4 C 0,3 km/h (0 Bft)
26.09.2023 15:00 24,4 C 15,7 C 23,4 C 30,5 C 30,5 C 6,1 C 61 % 60 % 1019,4 hPa 0,0 l/m 0,1 km/h (0 Bft) N 0,92 h 16,3 C 30,5 C 0,0 km/h (0 Bft)
26.09.2023 16:00 24,4 C 15,9 C 23,8 C 26,3 C 26,3 C 1,9 C 61 % 59 % 1018,9 hPa 0,0 l/m 0,0 km/h (0 Bft) N 0,00 h 16,4 C 26,3 C 0,0 km/h (0 Bft)
Min-Datum _ 25.09.23 25.09.23 25.09.23 25.09.23 25.09.23 25.09.23 25.09.23 25.09.23 26.09.23 - 25.09.23 - - 25.09.23 25.09.23 25.09.23
_ Min-Zeit 05:58 09:43 05:43 05:58 05:58 00:00 12:48 13:18 15:55 - 00:00 - - 05:58 05:58 00:00
Minimum _ 4,8 C 13,9 C 4,6 C 4,6 C 4,1 C 0,0 C 53 % 48 % 1018,9 hPa - 0,0 km/h (0 Bft) - - 3,0 C 4,1 C 0,0 km/h (0 Bft)
Max-Datum _ 26.09.23 25.09.23 26.09.23 26.09.23 26.09.23 26.09.23 25.09.23 25.09.23 25.09.23 25.09.23 26.09.23 - 26.09.23 26.09.23 26.09.23 26.09.23
_ Max-Zeit 14:15 20:35 16:05 14:50 14:50 14:50 05:53 08:58 00:00 00:00 11:05 - 08:11 13:50 14:50 11:20
Maximum _ 26,3 C 16,0 C 23,8 C 33,2 C 33,2 C 7,7 C 89 % 90 % 1027,6 hPa 0,0 l/m 1,9 km/h
O-NO (1 Bft)
- 0,10 h 17,7 C 33,2 C 7,1 km/h
O-NO (2 Bft)
Durchschnitt _ 13,5 C 15,2 C 13,0 C 14,5 C 14,0 C 1,3 C 78 % 72 % 1024,0 hPa #0,0 l/m 0,1 km/h (0 Bft) O-NO #8:47 h 9,3 C 14,0 C 0,1 km/h (0 Bft)
2023 www.wetterstation-wechselburg.de